createdAt,value
2018-12-23T00:00:13.824Z,9.20
2018-12-23T00:02:42.333Z,8.90
2018-12-23T00:05:11.544Z,9.00
2018-12-23T00:07:40.491Z,9.10
2018-12-23T00:10:09.234Z,8.80
2018-12-23T00:12:37.726Z,8.80
2018-12-23T00:15:08.110Z,8.90
2018-12-23T00:17:37.540Z,8.80
2018-12-23T00:20:08.009Z,8.70
2018-12-23T00:22:36.524Z,8.60
2018-12-23T00:25:05.524Z,8.40
2018-12-23T00:27:34.017Z,8.40
2018-12-23T00:30:02.676Z,8.50
2018-12-23T00:32:31.268Z,8.40
2018-12-23T00:34:59.788Z,8.70
2018-12-23T00:37:28.285Z,8.60
2018-12-23T00:39:57.297Z,8.80
2018-12-23T00:42:25.785Z,8.90
2018-12-23T00:44:54.318Z,8.80
2018-12-23T00:47:22.809Z,8.70
2018-12-23T00:49:51.345Z,8.70
2018-12-23T00:52:19.870Z,8.70
2018-12-23T00:54:48.432Z,8.90
2018-12-23T00:57:19.200Z,8.90
2018-12-23T00:59:47.547Z,8.70
2018-12-23T01:02:16.043Z,8.90
2018-12-23T01:04:44.570Z,8.90
2018-12-23T01:07:13.077Z,8.80
2018-12-23T01:09:41.604Z,8.70
2018-12-23T01:12:10.103Z,8.60
2018-12-23T01:14:38.654Z,8.50
2018-12-23T01:17:07.175Z,8.70
2018-12-23T01:19:35.746Z,8.50
2018-12-23T01:22:04.257Z,8.60
2018-12-23T01:24:32.809Z,8.70
2018-12-23T01:27:01.300Z,8.60
2018-12-23T01:29:30.057Z,8.70
2018-12-23T01:31:58.570Z,8.70
2018-12-23T01:34:27.096Z,8.80
2018-12-23T01:36:55.758Z,8.60
2018-12-23T01:39:24.302Z,8.70
2018-12-23T01:41:52.802Z,8.70
2018-12-23T01:44:21.315Z,8.70
2018-12-23T01:46:49.884Z,8.70
2018-12-23T01:49:18.561Z,8.80
2018-12-23T01:51:47.048Z,8.70
2018-12-23T01:54:15.580Z,8.70
2018-12-23T01:56:44.075Z,8.80
2018-12-23T01:59:12.608Z,8.40
2018-12-23T02:01:41.091Z,8.40
2018-12-23T02:04:09.617Z,8.60
2018-12-23T02:06:38.116Z,8.50
2018-12-23T02:09:06.878Z,8.50
2018-12-23T02:11:35.405Z,8.30
2018-12-23T02:14:04.096Z,8.40
2018-12-23T02:16:32.700Z,8.50
2018-12-23T02:19:01.220Z,8.30
2018-12-23T02:21:29.792Z,8.50
2018-12-23T02:23:58.287Z,8.10
2018-12-23T02:26:26.807Z,8.40
2018-12-23T02:28:55.340Z,8.30
2018-12-23T02:31:23.873Z,8.40
2018-12-23T02:33:52.373Z,8.50
2018-12-23T02:36:20.875Z,8.60
2018-12-23T02:38:49.363Z,8.60
2018-12-23T02:41:17.919Z,8.50
2018-12-23T02:43:46.416Z,8.50
2018-12-23T02:46:14.933Z,8.50
2018-12-23T02:48:43.463Z,8.40
2018-12-23T02:51:11.987Z,8.30
2018-12-23T02:53:40.481Z,8.40
2018-12-23T02:56:09.231Z,8.40
2018-12-23T02:58:37.771Z,8.40
2018-12-23T03:01:06.276Z,8.40
2018-12-23T03:03:34.779Z,8.30
2018-12-23T03:06:06.200Z,8.30
2018-12-23T03:08:33.821Z,8.20
2018-12-23T03:11:02.451Z,8.20
2018-12-23T03:13:30.960Z,8.30
2018-12-23T03:15:59.621Z,8.30
2018-12-23T03:18:28.124Z,8.10
2018-12-23T03:20:56.645Z,8.30
2018-12-23T03:23:25.132Z,8.30
2018-12-23T03:25:53.644Z,8.30
2018-12-23T03:28:22.138Z,8.30
2018-12-23T03:30:50.681Z,8.30
2018-12-23T03:33:19.195Z,8.30
2018-12-23T03:35:47.848Z,8.20
2018-12-23T03:38:16.332Z,8.30
2018-12-23T03:40:44.847Z,8.20
2018-12-23T03:43:13.347Z,8.10
2018-12-23T03:45:41.858Z,8.20
2018-12-23T03:48:10.360Z,8.10
2018-12-23T03:50:38.869Z,8.10
2018-12-23T03:53:07.552Z,8.10
2018-12-23T03:55:36.072Z,8.00
2018-12-23T03:58:04.568Z,8.20
2018-12-23T04:00:33.137Z,8.10
2018-12-23T04:03:01.720Z,8.10
2018-12-23T04:05:30.253Z,8.10
2018-12-23T04:07:58.764Z,8.10
2018-12-23T04:10:27.291Z,8.20
2018-12-23T04:12:55.770Z,8.10
2018-12-23T04:15:24.301Z,8.00
2018-12-23T04:17:52.799Z,7.90
2018-12-23T04:20:21.314Z,7.90
2018-12-23T04:22:49.824Z,8.00
2018-12-23T04:25:18.339Z,8.00
2018-12-23T04:27:46.834Z,8.10
2018-12-23T04:30:15.419Z,8.00
2018-12-23T04:32:43.964Z,8.00
2018-12-23T04:35:12.477Z,8.10
2018-12-23T04:37:40.981Z,8.10
2018-12-23T04:40:09.507Z,7.90
2018-12-23T04:42:38.008Z,7.70
2018-12-23T04:45:06.554Z,7.90
2018-12-23T04:47:35.039Z,7.80
2018-12-23T04:50:03.991Z,7.70
2018-12-23T04:52:32.479Z,7.80
2018-12-23T04:55:01.013Z,7.80
2018-12-23T04:57:29.621Z,7.70
2018-12-23T04:59:58.126Z,7.90
2018-12-23T05:02:26.643Z,8.00
2018-12-23T05:04:55.133Z,8.00
2018-12-23T05:07:23.719Z,7.90
2018-12-23T05:09:52.208Z,7.80
2018-12-23T05:12:20.725Z,7.80
2018-12-23T05:14:49.230Z,7.80
2018-12-23T05:17:17.882Z,7.80
2018-12-23T05:19:46.384Z,7.90
2018-12-23T05:22:14.899Z,7.90
2018-12-23T05:24:43.376Z,7.80
2018-12-23T05:27:11.917Z,7.90
2018-12-23T05:29:40.444Z,7.90
2018-12-23T05:32:08.959Z,7.90
2018-12-23T05:34:37.471Z,7.80
2018-12-23T05:37:06.100Z,7.80
2018-12-23T05:39:34.717Z,7.80
2018-12-23T05:42:03.236Z,7.90
2018-12-23T05:44:31.748Z,7.80
2018-12-23T05:47:00.274Z,7.90
2018-12-23T05:49:28.760Z,7.80
2018-12-23T05:51:57.288Z,7.80
2018-12-23T05:54:25.765Z,7.80
2018-12-23T05:56:54.324Z,7.80
2018-12-23T05:59:22.811Z,7.90
2018-12-23T06:01:51.358Z,7.90
2018-12-23T06:04:19.860Z,7.70
2018-12-23T06:06:48.361Z,7.70
2018-12-23T06:09:16.840Z,7.80
2018-12-23T06:11:45.365Z,7.70
2018-12-23T06:14:13.888Z,7.70
2018-12-23T06:16:42.400Z,7.80
2018-12-23T06:19:10.885Z,7.70
2018-12-23T06:21:39.392Z,7.60
2018-12-23T06:24:07.879Z,7.60
2018-12-23T06:26:36.399Z,7.70
2018-12-23T06:29:04.875Z,7.80
2018-12-23T06:31:33.394Z,7.70
2018-12-23T06:34:01.926Z,7.80
2018-12-23T06:36:30.477Z,7.70
2018-12-23T06:38:59.150Z,7.70
2018-12-23T06:41:27.712Z,7.70
2018-12-23T06:43:56.195Z,7.70
2018-12-23T06:46:24.733Z,7.70
2018-12-23T06:48:53.217Z,7.70
2018-12-23T06:51:21.805Z,7.70
2018-12-23T06:53:50.310Z,7.70
2018-12-23T06:56:18.821Z,7.60
2018-12-23T06:58:47.475Z,7.60
2018-12-23T07:01:16.019Z,7.70
2018-12-23T07:03:44.510Z,7.70
2018-12-23T07:06:13.024Z,7.60
2018-12-23T07:08:41.525Z,7.60
2018-12-23T07:11:10.075Z,7.60
2018-12-23T07:13:38.567Z,7.60
2018-12-23T07:16:07.338Z,7.60
2018-12-23T07:18:35.838Z,7.60
2018-12-23T07:21:04.357Z,7.30
2018-12-23T07:23:32.891Z,7.40
2018-12-23T07:26:01.595Z,7.30
2018-12-23T07:28:30.109Z,7.50
2018-12-23T07:30:58.719Z,7.50
2018-12-23T07:33:27.317Z,7.60
2018-12-23T07:35:56.219Z,7.60
2018-12-23T07:38:24.834Z,7.50
2018-12-23T07:40:53.443Z,7.50
2018-12-23T07:43:22.023Z,7.50
2018-12-23T07:45:50.532Z,7.60
2018-12-23T07:48:19.042Z,7.50
2018-12-23T07:50:47.553Z,7.60
2018-12-23T07:53:16.064Z,7.60
2018-12-23T07:55:44.565Z,7.60
2018-12-23T07:58:13.076Z,7.60
2018-12-23T08:00:41.572Z,7.60
2018-12-23T08:03:10.084Z,7.60
2018-12-23T08:05:38.566Z,7.60
2018-12-23T08:08:07.113Z,7.60
2018-12-23T08:10:35.600Z,7.60
2018-12-23T08:13:04.120Z,7.60
2018-12-23T08:15:32.660Z,7.60
2018-12-23T08:18:01.191Z,7.60
2018-12-23T08:20:29.691Z,7.60
2018-12-23T08:22:58.230Z,7.60
2018-12-23T08:25:26.736Z,7.50
2018-12-23T08:27:57.274Z,7.60
2018-12-23T08:30:25.764Z,7.60
2018-12-23T08:32:54.744Z,7.60
2018-12-23T08:35:23.232Z,7.60
2018-12-23T08:37:51.744Z,7.60
2018-12-23T08:40:20.392Z,7.50
2018-12-23T08:42:48.920Z,7.60
2018-12-23T08:45:17.419Z,7.60
2018-12-23T08:47:45.926Z,7.60
2018-12-23T08:50:14.795Z,7.60
2018-12-23T08:52:43.340Z,7.60
2018-12-23T08:55:11.876Z,7.60
2018-12-23T08:57:40.407Z,7.50
2018-12-23T09:00:08.915Z,7.50
2018-12-23T09:02:37.768Z,7.50
2018-12-23T09:05:06.416Z,7.50
2018-12-23T09:07:34.982Z,7.60
2018-12-23T09:10:03.818Z,7.60
2018-12-23T09:12:32.468Z,7.50
2018-12-23T09:15:01.145Z,7.60
2018-12-23T09:17:29.688Z,7.60
2018-12-23T09:19:58.257Z,7.50
2018-12-23T09:22:26.851Z,7.60
2018-12-23T09:24:55.344Z,7.60
2018-12-23T09:27:23.857Z,7.50
2018-12-23T09:29:52.459Z,7.50
2018-12-23T09:32:20.975Z,7.50
2018-12-23T09:34:49.524Z,7.60
2018-12-23T09:37:18.101Z,7.60
2018-12-23T09:39:46.650Z,7.60
2018-12-23T09:42:15.269Z,7.60
2018-12-23T09:44:43.883Z,7.60
2018-12-23T09:47:12.500Z,7.60
2018-12-23T09:49:41.022Z,7.60
2018-12-23T09:52:10.467Z,7.70
2018-12-23T09:54:38.949Z,7.70
2018-12-23T09:57:07.521Z,7.70
2018-12-23T09:59:36.158Z,7.70
2018-12-23T10:02:04.716Z,7.70
2018-12-23T10:04:33.215Z,7.70
2018-12-23T10:07:01.726Z,7.70
2018-12-23T10:09:30.206Z,7.70
2018-12-23T10:11:58.728Z,7.70
2018-12-23T10:14:27.259Z,7.60
2018-12-23T10:16:55.803Z,7.70
2018-12-23T10:19:24.302Z,7.70
2018-12-23T10:21:52.826Z,7.70
2018-12-23T10:24:21.332Z,7.80
2018-12-23T10:26:49.926Z,7.80
2018-12-23T10:29:19.337Z,7.80
2018-12-23T10:31:47.922Z,7.90
2018-12-23T10:34:16.480Z,7.90
2018-12-23T10:36:44.963Z,7.90
2018-12-23T10:39:13.487Z,8.00
2018-12-23T10:41:41.989Z,8.00
2018-12-23T10:44:10.507Z,7.90
2018-12-23T10:46:39.006Z,8.00
2018-12-23T10:49:07.505Z,8.00
2018-12-23T10:51:36.035Z,8.00
2018-12-23T10:54:04.562Z,8.00
2018-12-23T10:56:33.064Z,8.10
2018-12-23T10:59:01.580Z,8.10
2018-12-23T11:01:30.073Z,8.20
2018-12-23T11:03:58.588Z,8.20
2018-12-23T11:06:27.183Z,8.20
2018-12-23T11:08:55.691Z,8.20
2018-12-23T11:11:24.193Z,8.30
2018-12-23T11:13:52.722Z,8.30
2018-12-23T11:16:21.252Z,8.40
2018-12-23T11:18:49.777Z,8.30
2018-12-23T11:21:18.256Z,8.40
2018-12-23T11:23:46.780Z,8.40
2018-12-23T11:26:15.271Z,8.40
2018-12-23T11:28:43.775Z,8.40
2018-12-23T11:31:12.263Z,8.50
2018-12-23T11:33:40.811Z,8.50
2018-12-23T11:36:09.298Z,8.50
2018-12-23T11:38:37.807Z,8.50
2018-12-23T11:41:06.308Z,8.50
2018-12-23T11:43:34.813Z,8.50
2018-12-23T11:46:03.332Z,8.40
2018-12-23T11:48:31.874Z,8.50
2018-12-23T11:51:00.372Z,8.40
2018-12-23T11:53:28.882Z,8.70
2018-12-23T11:55:57.405Z,9.80
2018-12-23T11:58:25.948Z,10.40
2018-12-23T12:00:54.448Z,10.90
2018-12-23T12:03:22.981Z,11.20
2018-12-23T12:05:51.556Z,11.20
2018-12-23T12:08:20.121Z,11.10
2018-12-23T12:10:48.621Z,11.10
2018-12-23T12:13:17.154Z,11.30
2018-12-23T12:15:45.682Z,11.70
2018-12-23T12:18:14.237Z,11.70
2018-12-23T12:20:42.731Z,11.50
2018-12-23T12:23:11.247Z,11.70
2018-12-23T12:25:39.741Z,11.70
2018-12-23T12:28:08.252Z,11.70
2018-12-23T12:30:36.753Z,11.70
2018-12-23T12:33:05.320Z,11.60
2018-12-23T12:35:33.816Z,11.80
2018-12-23T12:38:02.337Z,11.70
2018-12-23T12:40:30.828Z,11.70
2018-12-23T12:42:59.927Z,11.80
2018-12-23T12:45:28.424Z,11.80
2018-12-23T12:47:56.939Z,11.80
2018-12-23T12:50:25.429Z,11.90
2018-12-23T12:52:53.934Z,11.70
2018-12-23T12:55:22.540Z,11.80
2018-12-23T12:57:51.714Z,11.90
2018-12-23T13:00:20.219Z,11.80
2018-12-23T13:02:48.714Z,11.80
2018-12-23T13:05:17.242Z,11.70
2018-12-23T13:07:45.869Z,11.80
2018-12-23T13:10:14.398Z,11.80
2018-12-23T13:12:42.906Z,11.80
2018-12-23T13:15:11.501Z,12.00
2018-12-23T13:17:39.992Z,11.80
2018-12-23T13:20:08.571Z,12.30
2018-12-23T13:22:37.071Z,11.90
2018-12-23T13:25:05.778Z,12.00
2018-12-23T13:27:34.272Z,11.90
2018-12-23T13:30:02.803Z,11.90
2018-12-23T13:32:31.301Z,11.80
2018-12-23T13:34:59.824Z,12.00
2018-12-23T13:37:28.315Z,11.80
2018-12-23T13:39:58.957Z,11.70
2018-12-23T13:42:51.110Z,11.80
2018-12-23T13:45:31.127Z,11.80
2018-12-23T13:48:12.693Z,11.70
2018-12-23T13:53:11.551Z,11.70
2018-12-23T13:58:13.610Z,11.70
2018-12-23T14:01:13.349Z,11.50
2018-12-23T14:04:00.462Z,11.90
2018-12-23T14:07:46.880Z,11.60
2018-12-23T14:10:24.477Z,11.60
2018-12-23T14:12:52.979Z,11.50
2018-12-23T14:15:21.817Z,11.50
2018-12-23T14:17:50.307Z,11.50
2018-12-23T14:20:18.832Z,11.40
2018-12-23T14:22:47.324Z,11.40
2018-12-23T14:25:15.831Z,11.30
2018-12-23T14:27:44.315Z,11.30
2018-12-23T14:30:12.839Z,11.70
2018-12-23T14:32:41.443Z,11.70
2018-12-23T14:35:10.006Z,11.60
2018-12-23T14:37:39.025Z,11.60
2018-12-23T14:40:07.556Z,11.50
2018-12-23T14:42:36.047Z,11.40
2018-12-23T14:45:05.170Z,11.30
2018-12-23T14:47:33.698Z,11.30
2018-12-23T14:50:02.181Z,11.40
2018-12-23T14:52:30.721Z,11.40
2018-12-23T14:54:59.221Z,11.30
2018-12-23T14:57:27.752Z,11.20
2018-12-23T14:59:56.258Z,11.20
2018-12-23T15:02:24.781Z,11.10
2018-12-23T15:04:53.265Z,11.00
2018-12-23T15:07:21.788Z,11.00
2018-12-23T15:09:50.271Z,11.10
2018-12-23T15:12:18.812Z,11.10
2018-12-23T15:14:47.340Z,11.10
2018-12-23T15:17:15.938Z,11.10
2018-12-23T15:19:44.444Z,11.00
2018-12-23T15:22:12.977Z,11.10
2018-12-23T15:24:41.464Z,11.60
2018-12-23T15:27:09.985Z,11.20
2018-12-23T15:29:38.491Z,11.00
2018-12-23T15:32:07.000Z,11.00
2018-12-23T15:34:35.514Z,10.80
2018-12-23T15:37:04.032Z,11.00
2018-12-23T15:39:32.515Z,11.00
2018-12-23T15:42:01.036Z,10.90
2018-12-23T15:44:29.541Z,11.00
2018-12-23T15:46:58.044Z,11.10
2018-12-23T15:49:26.553Z,10.90
2018-12-23T15:51:55.089Z,10.90
2018-12-23T15:54:23.634Z,10.80
2018-12-23T15:56:52.235Z,10.80
2018-12-23T15:59:20.842Z,10.80
2018-12-23T16:01:49.437Z,10.70
2018-12-23T16:04:17.960Z,10.70
2018-12-23T16:06:46.507Z,10.70
2018-12-23T16:09:15.064Z,10.70
2018-12-23T16:11:43.558Z,10.70
2018-12-23T16:14:12.088Z,10.60
2018-12-23T16:16:40.613Z,10.20
2018-12-23T16:19:09.220Z,10.40
2018-12-23T16:21:39.105Z,10.40
2018-12-23T16:24:07.709Z,10.50
2018-12-23T16:26:36.208Z,10.70
2018-12-23T16:29:04.747Z,10.70
2018-12-23T16:31:34.019Z,10.70
2018-12-23T16:34:02.558Z,10.50
2018-12-23T16:36:31.145Z,10.60
2018-12-23T16:38:59.689Z,10.70
2018-12-23T16:41:28.192Z,10.50
2018-12-23T16:43:56.683Z,10.60
2018-12-23T16:46:25.172Z,10.60
2018-12-23T16:48:53.697Z,10.60
2018-12-23T16:51:22.327Z,10.50
2018-12-23T16:53:50.849Z,10.40
2018-12-23T16:56:19.352Z,10.20
2018-12-23T16:58:47.870Z,10.40
2018-12-23T17:01:16.351Z,10.40
2018-12-23T17:03:44.918Z,10.30
2018-12-23T17:06:13.406Z,10.40
2018-12-23T17:08:41.932Z,10.40
2018-12-23T17:11:10.432Z,10.30
2018-12-23T17:13:39.158Z,10.40
2018-12-23T17:16:07.786Z,10.30
2018-12-23T17:18:36.354Z,10.00
2018-12-23T17:21:04.865Z,10.30
2018-12-23T17:23:33.425Z,10.20
2018-12-23T17:26:02.187Z,10.20
2018-12-23T17:28:30.884Z,10.20
2018-12-23T17:30:59.576Z,10.10
2018-12-23T17:33:28.092Z,10.00
2018-12-23T17:35:56.744Z,10.30
2018-12-23T17:38:25.252Z,10.00
2018-12-23T17:40:53.807Z,10.10
2018-12-23T17:43:22.321Z,10.10
2018-12-23T17:45:50.895Z,10.20
2018-12-23T17:48:19.401Z,9.80
2018-12-23T17:50:47.916Z,10.00
2018-12-23T17:53:16.391Z,9.90
2018-12-23T17:55:44.906Z,9.80
2018-12-23T17:58:14.180Z,9.80
2018-12-23T18:00:42.821Z,9.80
2018-12-23T18:03:11.679Z,10.00
2018-12-23T18:05:40.223Z,10.10
2018-12-23T18:08:08.720Z,10.00
2018-12-23T18:10:37.264Z,9.80
2018-12-23T18:13:05.829Z,9.90
2018-12-23T18:15:34.507Z,10.10
2018-12-23T18:18:03.017Z,10.00
2018-12-23T18:20:31.561Z,9.90
2018-12-23T18:23:00.057Z,10.00
2018-12-23T18:25:28.635Z,9.70
2018-12-23T18:27:57.211Z,9.90
2018-12-23T18:30:25.758Z,10.00
2018-12-23T18:32:54.281Z,10.00
2018-12-23T18:35:22.778Z,9.90
2018-12-23T18:37:51.343Z,9.80
2018-12-23T18:40:19.874Z,9.90
2018-12-23T18:42:48.395Z,10.00
2018-12-23T18:45:16.920Z,10.10
2018-12-23T18:47:45.434Z,9.90
2018-12-23T18:50:13.937Z,9.90
2018-12-23T18:52:42.508Z,10.10
2018-12-23T18:55:11.040Z,10.00
2018-12-23T18:57:43.101Z,9.80
2018-12-23T19:00:12.803Z,9.80
2018-12-23T19:02:46.459Z,9.80
2018-12-23T19:05:14.974Z,9.90
2018-12-23T19:07:45.197Z,9.80
2018-12-23T19:10:43.536Z,9.90
2018-12-23T19:15:20.704Z,9.90
2018-12-23T19:18:03.095Z,10.10
2018-12-23T19:21:17.144Z,9.80
2018-12-23T19:23:54.636Z,9.90
2018-12-23T19:28:38.376Z,9.80
2018-12-23T19:34:23.066Z,9.70
2018-12-23T19:37:21.627Z,9.80
2018-12-23T19:40:31.538Z,9.70
2018-12-23T19:43:47.161Z,9.80
2018-12-23T19:46:28.074Z,9.90
2018-12-23T19:49:09.434Z,9.80
2018-12-23T19:52:09.362Z,10.00
2018-12-23T19:54:50.784Z,9.90
2018-12-23T20:00:37.203Z,9.90
2018-12-23T20:03:18.474Z,9.90
2018-12-23T20:05:59.091Z,9.90
2018-12-23T20:08:40.563Z,10.00
2018-12-23T20:11:22.055Z,9.80
2018-12-23T20:14:03.413Z,9.60
2018-12-23T20:16:44.879Z,9.80
2018-12-23T20:19:25.803Z,9.80
2018-12-23T20:22:06.699Z,9.80
2018-12-23T20:24:48.317Z,9.80
2018-12-23T20:27:29.571Z,9.80
2018-12-23T20:30:10.306Z,9.70
2018-12-23T20:32:51.752Z,9.80
2018-12-23T20:35:33.228Z,9.90
2018-12-23T20:38:14.492Z,9.70
2018-12-23T20:40:55.728Z,9.70
2018-12-23T20:43:37.105Z,9.80
2018-12-23T20:46:18.636Z,9.80
2018-12-23T20:48:59.271Z,9.80
2018-12-23T20:51:40.082Z,9.80
2018-12-23T20:54:20.971Z,9.70
2018-12-23T20:57:02.336Z,9.70
2018-12-23T20:59:43.969Z,9.80
2018-12-23T21:02:25.337Z,9.80
2018-12-23T21:05:07.265Z,9.80
2018-12-23T21:07:48.513Z,9.80
2018-12-23T21:10:30.093Z,9.90
2018-12-23T21:13:10.760Z,9.90
2018-12-23T21:15:51.537Z,9.80
2018-12-23T21:18:32.861Z,9.90
2018-12-23T21:21:14.377Z,9.80
2018-12-23T21:23:55.905Z,9.80
2018-12-23T21:26:37.222Z,9.80
2018-12-23T21:29:17.987Z,9.70
2018-12-23T21:31:58.985Z,9.80
2018-12-23T21:34:39.642Z,9.80
2018-12-23T21:37:20.325Z,9.70
2018-12-23T21:40:01.860Z,9.70
2018-12-23T21:42:43.350Z,9.90
2018-12-23T21:45:24.131Z,9.80
2018-12-23T21:48:04.836Z,9.70
2018-12-23T21:50:45.705Z,9.70
2018-12-23T21:53:26.322Z,9.80
2018-12-23T21:56:06.989Z,9.90
2018-12-23T21:58:47.637Z,9.90
2018-12-23T22:01:29.399Z,9.70
2018-12-23T22:04:10.572Z,9.70
2018-12-23T22:06:52.047Z,9.80
2018-12-23T22:09:32.715Z,9.90
2018-12-23T22:12:14.370Z,9.80
2018-12-23T22:14:55.038Z,9.80
2018-12-23T22:17:35.918Z,9.90
2018-12-23T22:20:16.656Z,9.80
2018-12-23T22:22:58.436Z,9.80
2018-12-23T22:25:43.091Z,9.80
2018-12-23T22:28:24.439Z,9.80
2018-12-23T22:31:06.138Z,9.80
2018-12-23T22:33:47.648Z,9.90
2018-12-23T22:36:28.341Z,9.80
2018-12-23T22:41:52.221Z,9.70
2018-12-23T22:44:33.732Z,9.80
2018-12-23T22:47:14.396Z,9.80
2018-12-23T22:49:55.717Z,9.90
2018-12-23T22:52:37.290Z,9.80
2018-12-23T22:55:18.408Z,9.80
2018-12-23T22:57:59.202Z,9.90
2018-12-23T23:00:40.014Z,9.90
2018-12-23T23:03:21.669Z,9.90
2018-12-23T23:06:03.113Z,9.90
2018-12-23T23:11:52.240Z,9.90
2018-12-23T23:14:33.625Z,9.90
2018-12-23T23:17:15.128Z,9.90
2018-12-23T23:19:56.714Z,9.90
2018-12-23T23:22:38.009Z,9.90
2018-12-23T23:28:39.584Z,10.00
2018-12-23T23:31:20.774Z,9.90
2018-12-23T23:34:02.427Z,9.90
2018-12-23T23:36:43.733Z,9.90
2018-12-23T23:39:24.449Z,9.90
2018-12-23T23:42:05.955Z,9.90
2018-12-23T23:47:55.841Z,9.90
2018-12-23T23:50:37.152Z,9.90
2018-12-23T23:53:17.823Z,9.90
2018-12-23T23:55:59.407Z,9.90
2018-12-23T23:58:40.153Z,10.00
